• Join FlightAware (Why Join?)
  • Login
  • US Flag 
02:36AM EST


 

Airport Tracker/Info


-or-


 

Live Flight TrackerFlight Track Log ✈ UAL4274 ✈ 23-Apr-2013 ✈ KRIC - KCLE

Flight Track Log - Related Links

Times and Time Zones

All times are in EDT time to prevent confusion due to time zone crossing. See the UAL4274 flight status page for this flight to view local times or setup timezone preferences in your user account.

Time Position Orientation Groundspeed Altitude Reporting Facility
EDT Latitude Longitude Course Direction KTS MPH feet Rate Location/Type
06:39AM 37.5333 -77.3500 307° West 185 213 2,600  Level Potomac TRACON
06:40AM 37.5978 -77.4528 308° West 239 275 7,300 3,000 Climbing Washington Center
06:41AM 37.6403 -77.5272 306° West 255 293 10,400 2,400 Climbing Washington Center
06:42AM 37.6953 -77.6153 308° West 287 330 12,100 1,920 Climbing Washington Center
06:43AM 37.7542 -77.7139 307° West 324 373 14,300 2,160 Climbing Washington Center
06:44AM 37.7731 -77.7551 307° West  Level FlightAware Approximate
06:44AM 37.8128 -77.8128 307° West 346 398 16,500  Level Washington Center
06:45AM 37.8733 -77.9147 307° West 360 414 18,400 1,980 Climbing Washington Center
06:46AM 37.9339 -78.0192 306° West 365 420 20,500 2,100 Climbing Washington Center
06:47AM 37.9986 -78.1214 309° West 370 426 22,600 2,100 Climbing Washington Center
06:48AM 38.0997 -78.1672 340° North 370 426 24,700 1,980 Climbing Washington Center
06:49AM 38.2122 -78.1708 359° North 368 423 26,600 1,140 Climbing Washington Center
06:50AM 38.3269 -78.1775 357° North 386 444 27,000 180 Climbing Washington Center
06:51AM 38.4497 -78.1844 357° North 416 479 27,000  Level Washington Center
06:52AM 38.5808 -78.1917 358° North 441 507 27,000  Level Washington Center
06:53AM 38.7100 -78.1989 358° North 457 526 27,000  Level Washington Center
06:54AM 38.8433 -78.2064 357° North 463 533 27,000  Level Washington Center
06:55AM 38.9744 -78.2189 356° North 468 539 27,000  Level Washington Center
06:56AM 39.1075 -78.2344 355° North 473 544 27,000  Level Washington Center
06:57AM 39.2364 -78.2444 357° North 473 544 27,000  Level Washington Center
06:59AM 39.4600 -78.2656 356° North 472 543 27,000  Level Cleveland Center
07:00AM 39.5894 -78.2825 354° North 472 543 27,000  Level Cleveland Center
07:01AM 39.7189 -78.2944 356° North 461 531 27,000  Level Cleveland Center
07:02AM 39.8406 -78.3281 348° North 461 531 27,000  Level Cleveland Center
07:03AM 39.9406 -78.4278 323° Northwest 438 504 27,000  Level Cleveland Center
07:04AM 40.0403 -78.5331 321° Northwest 445 512 27,000  Level Cleveland Center
07:05AM 40.1361 -78.6386 320° Northwest 450 518 27,000  Level Cleveland Center
07:06AM 40.2317 -78.7447 320° Northwest 450 518 27,000  Level Cleveland Center
07:07AM 40.3231 -78.8539 318° Northwest 450 518 27,000  Level Cleveland Center
07:08AM 40.4000 -78.9828 308° West 445 512 27,000  Level Cleveland Center
07:09AM 40.4747 -79.1147 307° West 445 512 27,000  Level Cleveland Center
07:10AM 40.5472 -79.2469 306° West 450 518 27,000  Level Cleveland Center
07:11AM 40.6236 -79.3739 308° West 450 518 27,000  Level Cleveland Center
07:12AM 40.6936 -79.5069 305° West 445 512 27,000  Level Cleveland Center
07:13AM 40.7678 -79.6372 307° West 450 518 27,000 -60 Level Cleveland Center
07:14AM 40.8397 -79.7653 307° West 444 511 26,900 -600 Descending Cleveland Center
07:15AM 40.9094 -79.8964 305° West 444 511 25,900 -960 Descending Cleveland Center
07:16AM 40.9769 -80.0275 304° West 444 511 25,000 -900 Descending Cleveland Center
07:17AM 41.0400 -80.1592 302° West 439 505 24,100 -900 Descending Cleveland Center
07:18AM 41.1028 -80.2939 302° West 434 499 23,300 -900 Descending Cleveland Center
07:19AM 41.1636 -80.4175 303° West 417 480 22,300 -1,380 Descending Cleveland Center
07:20AM 41.2242 -80.5417 303° West 406 467 20,600 -1,980 Descending Cleveland Center
07:21AM 41.2761 -80.6578 301° West 385 443 18,400 -2,100 Descending Cleveland Center
07:22AM 41.3283 -80.7656 303° West 361 415 16,400 -2,040 Descending Cleveland Center
07:23AM 41.3822 -80.8819 302° West 344 396 14,400 -1,920 Descending Cleveland Center
07:24AM 41.4319 -80.9847 303° West 338 389 12,600 -1,680 Descending Cleveland Center
07:24AM 41.4442 -81.0125 300° West 313 360 12,300 -1,020 Descending Cleveland Center
07:25AM 41.4586 -81.0458 300° West 291 335 11,900 -1,260 Descending Cleveland Center
07:25AM 41.4733 -81.0736 305° West 322 371 11,400 -1,560 Descending Cleveland Center
07:26AM 41.5000 -81.1294 303° West 278 320 10,500 -1,440 Descending Cleveland Center
07:26AM 41.5103 -81.1683 289° West 295 339 10,000 -720 Descending Cleveland Center
07:27AM 41.5078 -81.2319 267° West 284 327 9,800 -540 Descending Cleveland Center
07:27AM 41.5117 -81.2708 278° West 281 323 9,500 -840 Descending Cleveland Center
07:28AM 41.5136 -81.3347 272° West 271 312 9,000 -1,020 Descending Cleveland Center
07:28AM 41.5153 -81.3733 273° West 281 323 8,500 -1,380 Descending Cleveland Center
07:29AM 41.5147 -81.4400 269° West 274 315 7,600 -1,320 Descending Cleveland Center
07:29AM 41.5167 -81.4733 274° West 276 318 7,200 -1,260 Descending Cleveland Center
07:30AM 41.5181 -81.5453 272° West 258 297 6,200 -1,320 Descending Cleveland Center
07:30AM 41.5181 -81.5675 270° West 260 299 5,900 -1,140 Descending Cleveland Center
07:31AM 41.5194 -81.6286 272° West 239 275 5,200 -1,020 Descending Cleveland Center
07:31AM 41.5172 -81.6536 263° West 246 283 4,900 -720 Descending Cleveland Center
07:32AM 41.5064 -81.7033 254° West 189 217 4,500 -840 Descending Cleveland Center
07:32AM 41.4978 -81.7197 235° Southwest 213 245 4,100 -1,380 Descending Cleveland Center
07:33AM 41.4744 -81.7525 226° Southwest 164 189 3,000 -1,260 Descending Cleveland Center
07:34AM 41.4492 -81.7908 229° Southwest 140 161 2,000 -1,140 Descending Cleveland Center
07:34AM 41.4406 -81.7992 216° Southwest 149 171 1,600 -900 Descending Cleveland Center
07:35AM 41.4236 -81.8292 233° Southwest 153 176 1,100 -720 Descending Cleveland Center
07:37AM 41.4000 -81.8500 252° West  Level FlightAware Approximate